createdAt,value
2023-03-27T00:01:18.078Z,1.70
2023-03-27T00:03:49.816Z,1.70
2023-03-27T00:06:20.112Z,1.70
2023-03-27T00:08:49.088Z,1.70
2023-03-27T00:11:17.189Z,1.70
2023-03-27T00:13:49.368Z,1.70
2023-03-27T00:16:18.982Z,1.60
2023-03-27T00:18:46.022Z,1.60
2023-03-27T00:21:13.294Z,1.70
2023-03-27T00:23:40.715Z,1.60
2023-03-27T00:26:07.588Z,1.50
2023-03-27T00:28:35.598Z,1.60
2023-03-27T00:31:02.992Z,1.50
2023-03-27T00:33:29.892Z,1.60
2023-03-27T00:35:56.853Z,1.50
2023-03-27T00:38:24.680Z,1.50
2023-03-27T00:40:54.839Z,1.50
2023-03-27T00:43:23.681Z,1.40
2023-03-27T00:45:55.577Z,1.50
2023-03-27T00:48:24.811Z,1.50
2023-03-27T00:50:52.942Z,1.50
2023-03-27T00:53:25.901Z,1.40
2023-03-27T00:55:55.959Z,1.40
2023-03-27T00:58:37.376Z,1.40
2023-03-27T01:01:04.376Z,1.50
2023-03-27T01:03:32.962Z,1.50
2023-03-27T01:06:04.846Z,1.40
2023-03-27T01:08:33.767Z,1.40
2023-03-27T01:11:36.143Z,1.40
2023-03-27T01:14:40.753Z,1.40
2023-03-27T01:17:39.016Z,1.40
2023-03-27T01:20:33.115Z,1.30
2023-03-27T01:23:36.320Z,1.30
2023-03-27T01:26:37.294Z,1.30
2023-03-27T01:29:18.824Z,1.30
2023-03-27T01:32:35.215Z,1.30
2023-03-27T01:35:17.159Z,1.30
2023-03-27T01:37:58.053Z,1.40
2023-03-27T01:40:31.635Z,1.30
2023-03-27T01:43:28.181Z,1.20
2023-03-27T01:46:15.590Z,1.30
2023-03-27T01:48:51.254Z,1.20
2023-03-27T01:51:24.495Z,1.20
2023-03-27T01:53:58.939Z,1.20
2023-03-27T01:56:33.010Z,1.30
2023-03-27T01:59:06.994Z,1.30
2023-03-27T02:01:40.689Z,1.30
2023-03-27T02:04:14.714Z,1.30
2023-03-27T02:06:47.255Z,1.30
2023-03-27T02:09:30.630Z,1.30
2023-03-27T02:12:04.386Z,1.20
2023-03-27T02:14:37.488Z,1.30
2023-03-27T02:17:11.496Z,1.30
2023-03-27T02:19:53.088Z,1.30
2023-03-27T02:22:20.776Z,1.30
2023-03-27T02:25:24.422Z,1.30
2023-03-27T02:28:14.235Z,1.30
2023-03-27T02:30:45.210Z,1.20
2023-03-27T02:33:27.555Z,1.20
2023-03-27T02:36:05.279Z,1.20
2023-03-27T02:38:44.545Z,1.30
2023-03-27T02:41:30.226Z,1.30
2023-03-27T02:44:26.615Z,1.20
2023-03-27T02:46:56.707Z,1.20
2023-03-27T02:49:34.149Z,1.20
2023-03-27T02:52:07.814Z,1.20
2023-03-27T02:55:09.429Z,1.20
2023-03-27T02:57:41.948Z,1.20
2023-03-27T03:00:25.430Z,1.20
2023-03-27T03:03:01.172Z,1.30
2023-03-27T03:05:28.968Z,1.30
2023-03-27T03:07:58.232Z,1.30
2023-03-27T03:10:26.905Z,1.30
2023-03-27T03:12:53.657Z,1.30
2023-03-27T03:15:20.507Z,1.30
2023-03-27T03:17:47.837Z,1.30
2023-03-27T03:20:14.845Z,1.20
2023-03-27T03:22:42.170Z,1.30
2023-03-27T03:25:13.062Z,1.30
2023-03-27T03:27:41.602Z,1.30
2023-03-27T03:30:09.728Z,1.30
2023-03-27T03:32:36.816Z,1.30
2023-03-27T03:35:04.132Z,1.20
2023-03-27T03:37:38.878Z,1.30
2023-03-27T03:40:11.997Z,1.30
2023-03-27T03:42:49.952Z,1.20
2023-03-27T03:45:18.066Z,1.30
2023-03-27T03:47:46.031Z,1.30
2023-03-27T03:50:14.257Z,1.30
2023-03-27T03:52:41.761Z,1.30
2023-03-27T03:55:11.731Z,1.40
2023-03-27T03:57:39.430Z,1.40
2023-03-27T04:00:08.824Z,1.40
2023-03-27T04:02:37.593Z,1.40
2023-03-27T04:05:08.572Z,1.50
2023-03-27T04:07:36.722Z,1.40
2023-03-27T04:10:04.684Z,1.40
2023-03-27T04:12:31.542Z,1.40
2023-03-27T04:14:58.906Z,1.50
2023-03-27T04:17:29.042Z,1.50
2023-03-27T04:19:56.023Z,1.40
2023-03-27T04:22:23.705Z,1.40
2023-03-27T04:24:50.614Z,1.40
2023-03-27T04:27:18.055Z,1.40
2023-03-27T04:29:47.827Z,1.40
2023-03-27T04:32:19.447Z,1.40
2023-03-27T04:34:48.474Z,1.40
2023-03-27T04:37:15.769Z,1.40
2023-03-27T04:39:46.444Z,1.30
2023-03-27T04:42:16.790Z,1.30
2023-03-27T04:44:46.536Z,1.20
2023-03-27T04:47:13.654Z,1.20
2023-03-27T04:49:42.787Z,1.20
2023-03-27T04:52:09.886Z,1.20
2023-03-27T04:54:37.110Z,1.00
2023-03-27T04:57:04.161Z,1.00
2023-03-27T04:59:34.128Z,0.90
2023-03-27T05:02:01.688Z,0.80
2023-03-27T05:04:30.008Z,1.00
2023-03-27T05:07:03.214Z,1.00
2023-03-27T05:09:30.363Z,0.90
2023-03-27T05:11:57.097Z,0.80
2023-03-27T05:14:24.188Z,0.80
2023-03-27T05:16:52.513Z,0.80
2023-03-27T05:19:20.309Z,0.90
2023-03-27T05:21:48.214Z,0.80
2023-03-27T05:24:16.245Z,0.80
2023-03-27T05:26:44.183Z,0.90
2023-03-27T05:29:11.077Z,1.00
2023-03-27T05:31:38.476Z,1.00
2023-03-27T05:34:06.080Z,1.00
2023-03-27T05:36:33.092Z,1.00
2023-03-27T05:39:00.059Z,0.90
2023-03-27T05:41:26.827Z,0.90
2023-03-27T05:43:54.083Z,1.10
2023-03-27T05:46:21.829Z,1.10
2023-03-27T05:48:49.245Z,1.20
2023-03-27T05:51:17.840Z,1.30
2023-03-27T05:53:44.938Z,1.50
2023-03-27T05:56:11.873Z,1.60
2023-03-27T05:58:38.852Z,1.80
2023-03-27T06:01:06.479Z,1.80
2023-03-27T06:03:37.398Z,1.80
2023-03-27T06:06:10.751Z,1.80
2023-03-27T06:08:38.417Z,2.10
2023-03-27T06:11:13.217Z,2.20
2023-03-27T06:13:40.058Z,2.10
2023-03-27T06:16:07.934Z,1.90
2023-03-27T06:18:35.046Z,2.10
2023-03-27T06:21:02.261Z,2.10
2023-03-27T06:23:29.632Z,2.80
2023-03-27T06:25:56.941Z,6.60
2023-03-27T06:28:24.438Z,9.60
2023-03-27T06:30:51.550Z,10.70
2023-03-27T06:33:18.945Z,11.10
2023-03-27T06:35:53.108Z,11.10
2023-03-27T06:38:21.617Z,11.50
2023-03-27T06:40:49.571Z,11.20
2023-03-27T06:43:19.057Z,12.10
2023-03-27T06:45:50.397Z,8.60
2023-03-27T06:48:22.564Z,6.10
2023-03-27T06:50:52.193Z,4.80
2023-03-27T06:53:27.281Z,4.40
2023-03-27T06:55:56.630Z,4.40
2023-03-27T06:58:24.178Z,4.00
2023-03-27T07:00:51.466Z,3.70
2023-03-27T07:03:21.562Z,3.90
2023-03-27T07:05:49.089Z,3.70
2023-03-27T07:08:24.519Z,3.60
2023-03-27T07:13:24.906Z,3.70
2023-03-27T07:15:52.093Z,3.60
2023-03-27T07:18:19.433Z,3.60
2023-03-27T07:20:48.495Z,3.70
2023-03-27T07:23:15.485Z,3.70
2023-03-27T07:25:43.028Z,3.80
2023-03-27T07:28:13.285Z,3.60
2023-03-27T07:30:41.331Z,3.70
2023-03-27T07:33:09.735Z,3.60
2023-03-27T07:35:43.768Z,3.60
2023-03-27T07:38:11.025Z,3.60
2023-03-27T07:40:40.436Z,3.70
2023-03-27T07:43:07.760Z,3.80
2023-03-27T07:45:35.965Z,3.90
2023-03-27T07:48:12.233Z,3.70
2023-03-27T07:50:39.239Z,3.70
2023-03-27T07:53:06.627Z,3.90
2023-03-27T07:55:36.814Z,4.00
2023-03-27T07:58:05.296Z,4.00
2023-03-27T08:00:36.108Z,4.10
2023-03-27T08:03:14.558Z,4.40
2023-03-27T08:05:50.717Z,4.50
2023-03-27T08:08:18.117Z,4.30
2023-03-27T08:10:45.706Z,4.60
2023-03-27T08:13:12.743Z,4.80
2023-03-27T08:15:40.198Z,5.30
2023-03-27T08:18:07.253Z,5.10
2023-03-27T08:20:36.364Z,5.10
2023-03-27T08:23:04.565Z,5.10
2023-03-27T08:25:33.479Z,4.90
2023-03-27T08:28:02.771Z,5.00
2023-03-27T08:30:30.762Z,5.00
2023-03-27T08:33:00.231Z,5.00
2023-03-27T08:35:27.840Z,5.20
2023-03-27T08:37:54.936Z,4.90
2023-03-27T08:40:28.438Z,5.20
2023-03-27T08:43:01.662Z,5.00
2023-03-27T08:45:45.670Z,4.90
2023-03-27T08:48:22.361Z,4.90
2023-03-27T08:51:06.953Z,5.10
2023-03-27T08:53:43.181Z,5.00
2023-03-27T08:56:15.052Z,4.90
2023-03-27T08:58:46.432Z,5.00
2023-03-27T09:01:23.560Z,5.10
2023-03-27T09:04:10.769Z,5.00
2023-03-27T09:06:50.734Z,5.10
2023-03-27T09:09:27.465Z,5.10
2023-03-27T09:12:13.225Z,5.20
2023-03-27T09:14:56.078Z,5.00
2023-03-27T09:17:36.416Z,5.30
2023-03-27T09:20:18.982Z,5.30
2023-03-27T09:22:53.885Z,5.30
2023-03-27T09:25:34.046Z,5.50
2023-03-27T09:28:03.343Z,5.30
2023-03-27T09:30:32.752Z,5.30
2023-03-27T09:33:18.904Z,5.50
2023-03-27T09:35:46.599Z,5.60
2023-03-27T09:38:22.867Z,5.80
2023-03-27T09:41:03.194Z,6.00
2023-03-27T09:43:56.810Z,5.80
2023-03-27T09:46:27.148Z,5.80
2023-03-27T09:49:14.826Z,6.00
2023-03-27T09:51:45.715Z,6.00
2023-03-27T09:54:18.826Z,6.40
2023-03-27T09:56:49.496Z,6.20
2023-03-27T09:59:31.059Z,6.40
2023-03-27T10:02:01.175Z,5.90
2023-03-27T10:04:30.699Z,6.00
2023-03-27T10:07:05.676Z,6.00
2023-03-27T10:09:41.458Z,6.00
2023-03-27T10:12:08.431Z,6.30
2023-03-27T10:14:41.688Z,6.70
2023-03-27T10:17:24.039Z,6.60
2023-03-27T10:20:00.341Z,6.50
2023-03-27T10:22:38.849Z,6.50
2023-03-27T10:25:27.276Z,6.90
2023-03-27T10:27:55.562Z,6.90
2023-03-27T10:30:25.484Z,6.60
2023-03-27T10:32:53.073Z,6.40
2023-03-27T10:35:37.178Z,6.60
2023-03-27T10:38:10.820Z,6.90
2023-03-27T10:40:40.131Z,6.80
2023-03-27T10:43:14.344Z,6.60
2023-03-27T10:45:52.472Z,6.50
2023-03-27T10:48:48.856Z,6.50
2023-03-27T10:51:46.779Z,6.40
2023-03-27T10:54:39.084Z,6.50
2023-03-27T10:57:20.192Z,6.50
2023-03-27T10:59:56.035Z,7.10
2023-03-27T11:02:33.208Z,7.00
2023-03-27T11:05:04.764Z,6.90
2023-03-27T11:07:43.905Z,7.30
2023-03-27T11:10:19.910Z,7.30
2023-03-27T11:13:02.042Z,6.70
2023-03-27T11:15:44.889Z,7.10
2023-03-27T11:18:22.748Z,7.10
2023-03-27T11:20:56.681Z,6.80
2023-03-27T11:23:37.515Z,6.50
2023-03-27T11:26:06.407Z,6.60
2023-03-27T11:28:44.061Z,6.50
2023-03-27T11:31:40.957Z,6.30
2023-03-27T11:34:29.122Z,6.40
2023-03-27T11:37:02.126Z,6.40
2023-03-27T11:39:54.166Z,5.40
2023-03-27T11:42:28.092Z,5.30
2023-03-27T11:44:56.015Z,5.00
2023-03-27T11:47:33.443Z,5.00
2023-03-27T11:50:18.940Z,5.20
2023-03-27T11:52:51.402Z,5.30
2023-03-27T11:55:49.603Z,5.60
2023-03-27T11:58:27.361Z,5.80
2023-03-27T12:01:13.368Z,5.70
2023-03-27T12:04:18.819Z,5.90
2023-03-27T12:06:52.399Z,6.10
2023-03-27T12:09:36.579Z,6.40
2023-03-27T12:12:28.505Z,6.80
2023-03-27T12:15:35.820Z,6.80
2023-03-27T12:18:14.855Z,7.10
2023-03-27T12:21:01.013Z,6.80
2023-03-27T12:24:05.949Z,6.70
2023-03-27T12:26:51.186Z,6.60
2023-03-27T12:30:16.711Z,6.90
2023-03-27T12:32:46.448Z,7.40
2023-03-27T12:35:21.568Z,7.60
2023-03-27T12:38:04.330Z,7.80
2023-03-27T12:40:35.622Z,7.80
2023-03-27T12:43:26.767Z,7.10
2023-03-27T12:46:24.956Z,5.40
2023-03-27T12:48:54.799Z,4.80
2023-03-27T12:51:43.948Z,4.50
2023-03-27T12:54:30.009Z,4.50
2023-03-27T12:57:13.854Z,4.60
2023-03-27T12:59:53.214Z,4.90
2023-03-27T13:02:48.364Z,5.30
2023-03-27T13:05:30.615Z,5.50
2023-03-27T13:08:19.483Z,5.70
2023-03-27T13:11:13.463Z,5.70
2023-03-27T13:13:49.510Z,5.90
2023-03-27T13:16:34.521Z,6.10
2023-03-27T13:19:29.448Z,5.90
2023-03-27T13:22:02.026Z,5.50
2023-03-27T13:24:51.449Z,5.40
2023-03-27T13:27:43.965Z,5.40
2023-03-27T13:30:53.161Z,5.40
2023-03-27T13:33:39.138Z,5.40
2023-03-27T13:36:20.133Z,5.40
2023-03-27T13:38:53.177Z,5.30
2023-03-27T13:41:45.354Z,5.30
2023-03-27T13:44:34.241Z,5.50
2023-03-27T13:47:37.534Z,5.50
2023-03-27T13:50:51.471Z,5.70
2023-03-27T13:53:23.186Z,5.80
2023-03-27T13:56:16.826Z,6.00
2023-03-27T13:59:08.785Z,6.30
2023-03-27T14:01:42.150Z,6.30
2023-03-27T14:04:24.493Z,6.30
2023-03-27T14:07:08.960Z,6.10
2023-03-27T14:09:54.301Z,5.90
2023-03-27T14:12:24.518Z,5.70
2023-03-27T14:15:16.374Z,5.50
2023-03-27T14:17:43.143Z,5.00
2023-03-27T14:20:19.773Z,4.40
2023-03-27T14:23:13.273Z,4.10
2023-03-27T14:25:50.398Z,3.70
2023-03-27T14:28:29.879Z,3.50
2023-03-27T14:30:57.387Z,3.40
2023-03-27T14:33:24.940Z,3.40
2023-03-27T14:36:04.377Z,3.40
2023-03-27T14:38:37.285Z,3.60
2023-03-27T14:41:07.141Z,3.80
2023-03-27T14:43:34.162Z,4.30
2023-03-27T14:46:06.156Z,4.60
2023-03-27T14:48:43.051Z,4.60
2023-03-27T14:51:16.085Z,4.60
2023-03-27T14:53:46.163Z,4.50
2023-03-27T14:56:29.489Z,4.90
2023-03-27T14:59:01.037Z,4.80
2023-03-27T15:01:31.928Z,4.90
2023-03-27T15:04:03.588Z,4.70
2023-03-27T15:06:36.847Z,4.50
2023-03-27T15:09:14.468Z,4.40
2023-03-27T15:11:49.393Z,4.30
2023-03-27T15:14:20.939Z,4.10
2023-03-27T15:16:53.149Z,3.90
2023-03-27T15:19:23.448Z,3.90
2023-03-27T15:22:01.321Z,4.10
2023-03-27T15:24:43.587Z,4.30
2023-03-27T15:27:37.705Z,4.30
2023-03-27T15:30:08.464Z,4.40
2023-03-27T15:32:50.978Z,4.40
2023-03-27T15:35:40.816Z,4.50
2023-03-27T15:38:13.693Z,4.60
2023-03-27T15:40:44.852Z,4.80
2023-03-27T15:43:16.302Z,5.10
2023-03-27T15:45:49.755Z,5.50
2023-03-27T15:48:23.843Z,5.80
2023-03-27T15:51:05.581Z,6.00
2023-03-27T15:53:36.015Z,6.10
2023-03-27T15:56:29.297Z,6.30
2023-03-27T15:59:01.933Z,6.20
2023-03-27T16:01:42.482Z,6.10
2023-03-27T16:04:14.832Z,5.90
2023-03-27T16:06:46.026Z,5.80
2023-03-27T16:09:47.249Z,5.70
2023-03-27T16:12:17.433Z,5.60
2023-03-27T16:14:57.348Z,5.50
2023-03-27T16:17:46.059Z,5.40
2023-03-27T16:20:16.007Z,5.20
2023-03-27T16:22:42.799Z,5.10
2023-03-27T16:25:12.228Z,5.10
2023-03-27T16:27:40.664Z,5.30
2023-03-27T16:30:10.698Z,5.30
2023-03-27T16:32:37.937Z,5.40
2023-03-27T16:35:05.286Z,5.50
2023-03-27T16:37:32.130Z,5.40
2023-03-27T16:39:59.396Z,5.40
2023-03-27T16:42:26.615Z,5.50
2023-03-27T16:44:53.677Z,5.40
2023-03-27T16:47:23.295Z,5.50
2023-03-27T16:50:03.566Z,5.60
2023-03-27T16:52:37.198Z,5.50
2023-03-27T16:55:07.175Z,5.60
2023-03-27T16:57:34.964Z,5.60
2023-03-27T17:00:02.002Z,5.50
2023-03-27T17:02:31.314Z,5.30
2023-03-27T17:05:00.417Z,5.00
2023-03-27T17:07:27.615Z,4.90
2023-03-27T17:09:54.804Z,4.80
2023-03-27T17:12:22.095Z,4.70
2023-03-27T17:14:49.211Z,4.70
2023-03-27T17:17:16.054Z,4.60
2023-03-27T17:19:42.993Z,4.60
2023-03-27T17:22:12.572Z,4.60
2023-03-27T17:24:53.419Z,4.60
2023-03-27T17:27:26.908Z,4.40
2023-03-27T17:29:56.433Z,4.40
2023-03-27T17:32:25.711Z,4.30
2023-03-27T17:34:53.754Z,4.20
2023-03-27T17:37:21.459Z,4.30
2023-03-27T17:39:49.141Z,4.10
2023-03-27T17:42:16.321Z,4.10
2023-03-27T17:44:45.136Z,4.10
2023-03-27T17:47:25.981Z,4.10
2023-03-27T17:49:54.592Z,3.90
2023-03-27T17:52:23.625Z,3.90
2023-03-27T17:54:50.633Z,3.80
2023-03-27T17:57:17.742Z,3.80
2023-03-27T17:59:46.452Z,3.70
2023-03-27T18:02:21.245Z,3.80
2023-03-27T18:04:52.402Z,3.70
2023-03-27T18:07:20.451Z,3.60
2023-03-27T18:09:47.320Z,3.60
2023-03-27T18:12:14.889Z,3.60
2023-03-27T18:14:42.806Z,3.70
2023-03-27T18:17:10.291Z,3.60
2023-03-27T18:19:37.215Z,3.60
2023-03-27T18:22:04.096Z,3.70
2023-03-27T18:24:31.242Z,3.60
2023-03-27T18:26:58.309Z,3.60
2023-03-27T18:29:25.891Z,3.60
2023-03-27T18:31:53.045Z,3.50
2023-03-27T18:34:20.185Z,3.40
2023-03-27T18:36:50.802Z,3.40
2023-03-27T18:39:21.230Z,3.40
2023-03-27T18:41:48.551Z,3.40
2023-03-27T18:44:15.660Z,3.40
2023-03-27T18:46:42.695Z,3.30
2023-03-27T18:49:21.595Z,3.30
2023-03-27T18:51:52.113Z,3.20
2023-03-27T18:54:19.189Z,3.10
2023-03-27T18:56:46.767Z,3.10
2023-03-27T18:59:14.733Z,3.00
2023-03-27T19:01:41.994Z,3.10
2023-03-27T19:04:09.919Z,3.10
2023-03-27T19:06:37.139Z,3.00
2023-03-27T19:09:05.636Z,3.00
2023-03-27T19:11:32.829Z,3.00
2023-03-27T19:13:59.844Z,2.90
2023-03-27T19:16:26.739Z,3.00
2023-03-27T19:18:53.562Z,2.90
2023-03-27T19:21:20.646Z,2.80
2023-03-27T19:23:47.737Z,2.90
2023-03-27T19:26:16.555Z,2.80
2023-03-27T19:28:44.381Z,2.70
2023-03-27T19:31:12.677Z,2.70
2023-03-27T19:33:40.676Z,2.90
2023-03-27T19:36:08.287Z,2.70
2023-03-27T19:38:37.308Z,2.70
2023-03-27T19:41:08.444Z,2.70
2023-03-27T19:43:35.407Z,2.60
2023-03-27T19:46:14.887Z,2.60
2023-03-27T19:48:47.735Z,2.60
2023-03-27T19:51:14.524Z,2.50
2023-03-27T19:53:41.988Z,2.50
2023-03-27T19:56:09.433Z,2.60
2023-03-27T19:58:36.540Z,2.60
2023-03-27T20:01:04.680Z,2.60
2023-03-27T20:03:32.309Z,2.60
2023-03-27T20:06:07.107Z,2.60
2023-03-27T20:08:38.344Z,2.60
2023-03-27T20:11:06.956Z,2.50
2023-03-27T20:13:42.533Z,2.50
2023-03-27T20:16:16.433Z,2.50
2023-03-27T20:18:43.929Z,2.50
2023-03-27T20:21:13.739Z,2.60
2023-03-27T20:23:43.431Z,2.70
2023-03-27T20:26:10.511Z,2.50
2023-03-27T20:28:37.364Z,2.40
2023-03-27T20:31:05.633Z,2.50
2023-03-27T20:33:34.488Z,2.40
2023-03-27T20:36:01.756Z,2.40
2023-03-27T20:38:31.801Z,2.30
2023-03-27T20:41:04.372Z,2.30
2023-03-27T20:43:35.070Z,2.30
2023-03-27T20:46:04.644Z,2.20
2023-03-27T20:48:42.056Z,2.20
2023-03-27T20:51:14.730Z,2.30
2023-03-27T20:53:46.438Z,2.30
2023-03-27T20:56:14.389Z,2.40
2023-03-27T20:58:42.067Z,2.30
2023-03-27T21:01:11.149Z,2.30
2023-03-27T21:03:41.873Z,2.40
2023-03-27T21:06:15.770Z,2.30
2023-03-27T21:08:42.766Z,2.30
2023-03-27T21:11:10.208Z,2.30
2023-03-27T21:13:37.846Z,2.30
2023-03-27T21:16:05.519Z,2.30
2023-03-27T21:18:32.328Z,2.30
2023-03-27T21:20:59.338Z,2.30
2023-03-27T21:23:26.137Z,2.30
2023-03-27T21:25:55.983Z,2.20
2023-03-27T21:28:25.774Z,2.30
2023-03-27T21:30:52.772Z,2.20
2023-03-27T21:33:20.146Z,2.10
2023-03-27T21:35:48.126Z,2.10
2023-03-27T21:38:16.586Z,2.10
2023-03-27T21:40:43.764Z,2.00
2023-03-27T21:43:10.690Z,2.00
2023-03-27T21:45:37.810Z,2.00
2023-03-27T21:48:05.204Z,1.90
2023-03-27T21:50:32.524Z,1.90
2023-03-27T21:52:59.592Z,1.90
2023-03-27T21:55:26.597Z,1.90
2023-03-27T21:57:55.724Z,1.90
2023-03-27T22:00:22.751Z,1.90
2023-03-27T22:02:50.152Z,2.00
2023-03-27T22:05:17.577Z,2.10
2023-03-27T22:07:45.441Z,2.10
2023-03-27T22:10:13.355Z,2.10
2023-03-27T22:12:40.663Z,2.10
2023-03-27T22:15:08.625Z,2.00
2023-03-27T22:17:38.395Z,2.00
2023-03-27T22:20:07.277Z,2.00
2023-03-27T22:22:35.306Z,2.00
2023-03-27T22:27:33.495Z,1.90
2023-03-27T22:30:00.773Z,1.90
2023-03-27T22:32:27.911Z,1.80
2023-03-27T22:34:54.740Z,1.80
2023-03-27T22:37:22.120Z,1.80
2023-03-27T22:39:51.896Z,1.80
2023-03-27T22:42:18.812Z,1.80
2023-03-27T22:44:45.875Z,1.70
2023-03-27T22:47:12.883Z,1.70
2023-03-27T22:49:40.050Z,1.70
2023-03-27T22:52:06.919Z,1.70
2023-03-27T22:54:34.240Z,1.70
2023-03-27T22:57:01.354Z,1.80
2023-03-27T22:59:28.196Z,1.80
2023-03-27T23:01:55.342Z,1.70
2023-03-27T23:04:22.155Z,1.70
2023-03-27T23:06:49.390Z,1.60
2023-03-27T23:09:16.412Z,1.70
2023-03-27T23:11:43.890Z,1.70
2023-03-27T23:14:11.394Z,1.70
2023-03-27T23:16:38.438Z,1.80
2023-03-27T23:19:05.621Z,1.90
2023-03-27T23:21:32.843Z,1.80
2023-03-27T23:23:59.818Z,2.00
2023-03-27T23:26:27.460Z,1.90
2023-03-27T23:28:54.439Z,1.90
2023-03-27T23:31:21.712Z,1.90
2023-03-27T23:33:53.365Z,2.00
2023-03-27T23:36:23.846Z,1.90
2023-03-27T23:38:53.255Z,1.90
2023-03-27T23:41:20.632Z,1.80
2023-03-27T23:43:48.496Z,1.70
2023-03-27T23:46:16.009Z,1.70
2023-03-27T23:48:44.548Z,1.70
2023-03-27T23:51:14.372Z,1.70
2023-03-27T23:53:45.963Z,1.60
2023-03-27T23:56:13.109Z,1.50
2023-03-27T23:58:40.150Z,1.50
